createdAt,value
2022-11-29T00:05:56.046Z,1017.0449860933596
2022-11-29T00:17:20.773Z,1017.0092378794994
2022-11-29T00:23:48.671Z,1017.0666614749207
2022-11-29T00:44:22.305Z,1017.1189571938905
2022-11-29T00:54:25.410Z,1017.1717337938826
2022-11-29T01:06:44.850Z,1017.1156382669662
2022-11-29T01:13:13.898Z,1017.1339686444563
2022-11-29T01:25:49.725Z,1017.180517864199
2022-11-29T01:41:15.345Z,1017.336085571579
2022-11-29T01:47:44.363Z,1017.3755080037037
2022-11-29T02:00:13.349Z,1017.3971041605885
2022-11-29T02:06:44.219Z,1017.4023425683198
2022-11-29T02:17:52.410Z,1017.4085942288677
2022-11-29T02:26:25.578Z,1017.4277820233275
2022-11-29T02:33:00.873Z,1017.4659638995105
2022-11-29T02:48:38.902Z,1017.5704764348051
2022-11-29T02:55:12.696Z,1017.6088005121854
2022-11-29T03:01:42.569Z,1017.6522612908275
2022-11-29T03:13:19.318Z,1017.7222809408403
2022-11-29T03:20:21.267Z,1017.8078195014447
2022-11-29T03:26:53.054Z,1017.8516277917503
2022-11-29T03:35:17.906Z,1017.8971148958569
2022-11-29T03:44:33.862Z,1017.9270737419725
2022-11-29T03:51:36.469Z,1017.9477673751223
2022-11-29T04:02:45.302Z,1017.9728145477328
2022-11-29T04:11:26.912Z,1018.0154602694929
2022-11-29T04:18:43.800Z,1018.0906141851184
2022-11-29T04:25:15.361Z,1018.1157515699322
2022-11-29T04:33:37.923Z,1018.1615681513518
2022-11-29T04:40:07.266Z,1018.2188323615039
2022-11-29T04:46:36.132Z,1018.2572941319366
2022-11-29T04:53:07.204Z,1018.2824112888873
2022-11-29T05:07:14.109Z,1018.4211992666499
2022-11-29T05:13:48.424Z,1018.5018544252986
2022-11-29T05:20:19.272Z,1018.5442733732211
2022-11-29T05:26:51.943Z,1018.5949547519222
2022-11-29T05:33:37.941Z,1018.6112279966746
2022-11-29T05:44:30.089Z,1018.7546466105697
2022-11-29T06:10:34.040Z,1019.0472383620007
2022-11-29T06:25:28.500Z,1019.1326287793244
2022-11-29T06:32:32.575Z,1019.2233800422069
2022-11-29T06:39:01.322Z,1019.2377033393338
2022-11-29T06:45:32.565Z,1019.2572350388091
2022-11-29T06:58:02.750Z,1019.3970324117297
2022-11-29T07:04:33.923Z,1019.4709346162348
2022-11-29T07:11:06.770Z,1019.5556985418593
2022-11-29T07:17:39.263Z,1019.6042351200064
2022-11-29T07:25:48.062Z,1019.6455283124906
2022-11-29T07:32:16.575Z,1019.7075723825999
2022-11-29T07:38:45.664Z,1019.7570713388601
2022-11-29T07:50:49.736Z,1019.8740853366762
2022-11-29T07:57:20.995Z,1019.9577271695032
2022-11-29T08:03:49.853Z,1020.0024417289268
2022-11-29T08:15:23.648Z,1020.0940677386858
2022-11-29T08:21:51.333Z,1020.1296850001369
2022-11-29T08:28:20.524Z,1020.1167360786961
2022-11-29T08:36:07.947Z,1020.1610531022517
2022-11-29T08:47:11.183Z,1020.2585220852899
2022-11-29T08:59:59.663Z,1020.3407097606726
2022-11-29T09:07:40.112Z,1020.3978072198094
2022-11-29T09:14:08.526Z,1020.4853717821687
2022-11-29T09:20:35.932Z,1020.533174831016
2022-11-29T09:27:03.008Z,1020.6036335302682
2022-11-29T09:35:30.832Z,1020.6975534076388
2022-11-29T09:43:17.678Z,1020.7677463181404
2022-11-29T09:49:47.064Z,1020.7915130834423
2022-11-29T09:56:14.955Z,1020.8026426670741
2022-11-29T10:02:43.865Z,1020.845673814574
2022-11-29T10:09:13.108Z,1020.8788155826481
2022-11-29T10:16:08.430Z,1020.846301760759
2022-11-29T10:22:36.929Z,1020.8506944290323
2022-11-29T10:29:05.303Z,1020.8426359177736
2022-11-29T10:35:33.709Z,1020.8324551673261
2022-11-29T10:42:02.320Z,1020.8190850731335
2022-11-29T10:54:55.179Z,1020.7643545017195
2022-11-29T11:01:23.760Z,1020.7662833832495
2022-11-29T11:14:59.789Z,1020.7892128731588
2022-11-29T11:27:51.754Z,1020.7773641199473
2022-11-29T11:34:20.266Z,1020.8135223702884
2022-11-29T11:53:56.498Z,1020.8385110241071
2022-11-29T12:05:10.245Z,1020.9170684321995
2022-11-29T12:11:38.455Z,1020.9227086519213
2022-11-29T12:18:06.031Z,1020.9165414748527
2022-11-29T12:24:33.466Z,1020.948879638941
2022-11-29T12:31:00.867Z,1021.0014919184778
2022-11-29T12:37:28.588Z,1021.0560768893138
2022-11-29T12:43:56.405Z,1021.0907637880193
2022-11-29T12:56:49.556Z,1021.1626588745677
2022-11-29T13:03:16.979Z,1021.169851763283
2022-11-29T13:09:44.866Z,1021.2003627558446
2022-11-29T13:16:17.170Z,1021.2322331083386
2022-11-29T13:22:47.838Z,1021.2342836985806
2022-11-29T13:29:15.195Z,1021.2529615408992
2022-11-29T13:35:42.339Z,1021.3025243580273
2022-11-29T13:42:10.283Z,1021.3242812180827
2022-11-29T13:49:44.885Z,1021.3285180201099
2022-11-29T14:01:51.234Z,1021.3569761877352
2022-11-29T14:08:18.841Z,1021.3587764984999
2022-11-29T14:25:51.959Z,1021.5140523716309
2022-11-29T14:36:15.257Z,1021.6151381020067
2022-11-29T14:42:43.931Z,1021.6411277644996
2022-11-29T14:49:10.925Z,1021.7005202887326
2022-11-29T14:56:59.739Z,1021.7218003200541
2022-11-29T15:03:26.861Z,1021.7213964067673
2022-11-29T15:09:55.136Z,1021.7221171217219
2022-11-29T15:19:53.701Z,1021.7449543861934
2022-11-29T15:29:45.450Z,1021.8270383536629
2022-11-29T15:36:13.181Z,1021.8924798404729
2022-11-29T15:42:41.590Z,1021.9546274478539
2022-11-29T15:49:09.216Z,1021.9994986184685
2022-11-29T15:55:37.238Z,1022.0593765903442
2022-11-29T16:05:42.385Z,1022.0824262039654
2022-11-29T16:12:09.458Z,1022.1152124864265
2022-11-29T16:18:38.690Z,1022.171488471088
2022-11-29T16:27:54.752Z,1022.2084101572023
2022-11-29T16:39:14.936Z,1022.2435271898423
2022-11-29T16:55:15.586Z,1022.3329368203118
2022-11-29T17:01:43.928Z,1022.3792806264506
2022-11-29T17:17:38.180Z,1022.46791906139
2022-11-29T17:26:53.966Z,1022.5002181788739
2022-11-29T17:36:38.241Z,1022.5371042528824
2022-11-29T17:43:06.749Z,1022.5969729605368
2022-11-29T17:49:35.607Z,1022.6840945637215
2022-11-29T17:56:02.944Z,1022.7234819164904
2022-11-29T18:02:31.728Z,1022.7642081494764
2022-11-29T18:09:00.308Z,1022.8279221862489
2022-11-29T18:21:55.312Z,1022.9636217807753
2022-11-29T18:28:25.560Z,1023.0180775024581
2022-11-29T18:34:55.720Z,1023.0784381460622
2022-11-29T18:41:23.108Z,1023.1043459448085
2022-11-29T18:47:50.186Z,1023.1281429986651
2022-11-29T18:54:16.691Z,1023.1242519254021
2022-11-29T19:00:43.765Z,1023.1553015168753
2022-11-29T19:11:13.496Z,1023.2001542694626
2022-11-29T19:17:43.471Z,1023.2111208997284
2022-11-29T19:24:11.803Z,1023.2654274290982
2022-11-29T19:30:43.587Z,1023.3399130665883
2022-11-29T19:37:16.070Z,1023.3875216584622
2022-11-29T19:46:34.194Z,1023.3593369393639
2022-11-29T19:53:59.389Z,1023.399390882056
2022-11-29T20:06:17.026Z,1023.4684252445668
2022-11-29T20:13:38.905Z,1023.5171271340572
2022-11-29T20:22:59.396Z,1023.6160746905598
2022-11-29T20:29:30.600Z,1023.667426977587
2022-11-29T20:38:33.845Z,1023.7140785210601
2022-11-29T20:45:05.732Z,1023.7677957527717
2022-11-29T20:51:44.898Z,1023.8251744522024
2022-11-29T20:58:28.735Z,1023.834422259356
2022-11-29T21:08:59.588Z,1023.8796799421999
2022-11-29T21:15:34.472Z,1023.9503565381356
2022-11-29T21:25:18.545Z,1023.9730966932796
2022-11-29T21:31:48.248Z,1023.9655710156161
2022-11-29T21:38:19.427Z,1023.9601119675543
2022-11-29T21:45:15.226Z,1023.9503459215898
2022-11-29T21:51:45.239Z,1023.9734305957012
2022-11-29T22:01:00.671Z,1023.9937842305836
2022-11-29T22:07:31.813Z,1024.0229752379826
2022-11-29T22:19:04.060Z,1023.993694722879
2022-11-29T22:25:38.490Z,1024.055994623553
2022-11-29T22:36:23.142Z,1024.1396263787622
2022-11-29T22:43:01.281Z,1024.1573321027292
2022-11-29T22:53:07.837Z,1024.2448612386802
2022-11-29T23:01:04.362Z,1024.2612048532562
2022-11-29T23:13:17.592Z,1024.3360911580367
2022-11-29T23:19:56.244Z,1024.4148954071086
2022-11-29T23:38:14.647Z,1024.4506845342394
2022-11-29T23:51:03.916Z,1024.4722870572798
2022-11-29T23:57:36.161Z,1024.4885055275608
